Terminal Aerodrome Forecast
Issued by NWS

Current Version | Previous Version | Graphics & Text | Print | Product List | Glossary On
Versions: 1 2 3 4 5 6 7 8 9 10 11 12 13 14 15 16 17 18 19 20 21 22 23 24 25 26 27
149
FTUS41 KPBZ 210724 AAA
TAFMGW
TAF AMD
KMGW 210724Z 2107/2206 13005KT 3SM -RA OVC050
     FM210900 13007KT P6SM -RA OVC025
     FM211100 13008KT P6SM -RA OVC015
     FM211400 11005KT P6SM -RA OVC008
     FM212100 01005KT 3SM -SHRA BR OVC008
     FM220300 01004KT 2SM BR OVC003=

USA.gov is the U.S. government's official web portal to all federal, state and local government web resources and services.